sensor_id;sensor_type;location;lat;lon;timestamp;P1;durP1;ratioP1;P2;durP2;ratioP2
4839;SDS011;2434;48.486;7.964;2023-10-08T00:01:04;18.30;;;4.57;;
4839;SDS011;2434;48.486;7.964;2023-10-08T00:03:35;7.50;;;4.10;;
4839;SDS011;2434;48.486;7.964;2023-10-08T00:06:04;7.83;;;4.10;;
4839;SDS011;2434;48.486;7.964;2023-10-08T00:08:39;11.03;;;4.50;;
4839;SDS011;2434;48.486;7.964;2023-10-08T00:11:07;9.17;;;4.60;;
4839;SDS011;2434;48.486;7.964;2023-10-08T00:13:37;10.60;;;4.43;;
4839;SDS011;2434;48.486;7.964;2023-10-08T00:16:08;8.80;;;4.20;;
4839;SDS011;2434;48.486;7.964;2023-10-08T00:18:38;6.83;;;4.20;;
4839;SDS011;2434;48.486;7.964;2023-10-08T00:21:09;13.03;;;4.63;;
4839;SDS011;2434;48.486;7.964;2023-10-08T00:23:46;10.83;;;5.70;;
4839;SDS011;2434;48.486;7.964;2023-10-08T00:26:19;9.63;;;5.93;;
4839;SDS011;2434;48.486;7.964;2023-10-08T00:28:55;11.20;;;5.20;;
4839;SDS011;2434;48.486;7.964;2023-10-08T00:31:26;8.10;;;5.00;;
4839;SDS011;2434;48.486;7.964;2023-10-08T00:33:58;10.40;;;5.07;;
4839;SDS011;2434;48.486;7.964;2023-10-08T00:36:31;11.37;;;4.30;;
4839;SDS011;2434;48.486;7.964;2023-10-08T00:39:02;10.07;;;5.33;;
4839;SDS011;2434;48.486;7.964;2023-10-08T00:41:35;10.03;;;4.87;;
4839;SDS011;2434;48.486;7.964;2023-10-08T00:44:07;7.20;;;4.13;;
4839;SDS011;2434;48.486;7.964;2023-10-08T00:46:36;7.93;;;4.33;;
4839;SDS011;2434;48.486;7.964;2023-10-08T00:49:08;12.37;;;4.27;;
4839;SDS011;2434;48.486;7.964;2023-10-08T00:51:51;6.00;;;4.23;;
4839;SDS011;2434;48.486;7.964;2023-10-08T00:54:44;9.10;;;4.20;;
4839;SDS011;2434;48.486;7.964;2023-10-08T00:57:23;7.93;;;4.00;;
4839;SDS011;2434;48.486;7.964;2023-10-08T00:59:55;8.97;;;4.67;;
4839;SDS011;2434;48.486;7.964;2023-10-08T01:02:26;8.60;;;4.23;;
4839;SDS011;2434;48.486;7.964;2023-10-08T01:05:11;9.13;;;3.87;;
4839;SDS011;2434;48.486;7.964;2023-10-08T01:07:41;10.97;;;5.30;;
4839;SDS011;2434;48.486;7.964;2023-10-08T01:10:12;8.00;;;4.70;;
4839;SDS011;2434;48.486;7.964;2023-10-08T01:12:46;11.43;;;4.17;;
4839;SDS011;2434;48.486;7.964;2023-10-08T01:15:30;7.57;;;4.53;;
4839;SDS011;2434;48.486;7.964;2023-10-08T01:18:03;16.60;;;4.97;;
4839;SDS011;2434;48.486;7.964;2023-10-08T01:20:34;8.80;;;4.50;;
4839;SDS011;2434;48.486;7.964;2023-10-08T01:23:06;10.50;;;4.83;;
4839;SDS011;2434;48.486;7.964;2023-10-08T01:25:40;8.40;;;3.80;;
4839;SDS011;2434;48.486;7.964;2023-10-08T01:28:09;8.77;;;4.30;;
4839;SDS011;2434;48.486;7.964;2023-10-08T01:30:42;7.67;;;4.27;;
4839;SDS011;2434;48.486;7.964;2023-10-08T01:33:13;8.10;;;4.30;;
4839;SDS011;2434;48.486;7.964;2023-10-08T01:35:42;8.33;;;4.20;;
4839;SDS011;2434;48.486;7.964;2023-10-08T01:38:12;10.50;;;4.53;;
4839;SDS011;2434;48.486;7.964;2023-10-08T01:40:41;6.73;;;4.07;;
4839;SDS011;2434;48.486;7.964;2023-10-08T01:43:09;11.00;;;4.40;;
4839;SDS011;2434;48.486;7.964;2023-10-08T01:45:40;10.63;;;5.13;;
4839;SDS011;2434;48.486;7.964;2023-10-08T01:48:10;7.83;;;4.20;;
4839;SDS011;2434;48.486;7.964;2023-10-08T01:50:39;9.23;;;3.90;;
4839;SDS011;2434;48.486;7.964;2023-10-08T01:53:07;8.23;;;4.50;;
4839;SDS011;2434;48.486;7.964;2023-10-08T01:55:38;9.50;;;4.07;;
4839;SDS011;2434;48.486;7.964;2023-10-08T01:58:16;10.13;;;5.03;;
4839;SDS011;2434;48.486;7.964;2023-10-08T02:00:48;10.43;;;4.60;;
4839;SDS011;2434;48.486;7.964;2023-10-08T02:03:19;8.47;;;3.97;;
4839;SDS011;2434;48.486;7.964;2023-10-08T02:05:49;6.97;;;3.83;;
4839;SDS011;2434;48.486;7.964;2023-10-08T02:08:20;7.57;;;4.10;;
4839;SDS011;2434;48.486;7.964;2023-10-08T02:10:50;6.33;;;3.00;;
4839;SDS011;2434;48.486;7.964;2023-10-08T02:13:19;8.77;;;3.23;;
4839;SDS011;2434;48.486;7.964;2023-10-08T02:15:48;7.13;;;3.13;;
4839;SDS011;2434;48.486;7.964;2023-10-08T02:18:18;8.50;;;3.53;;
4839;SDS011;2434;48.486;7.964;2023-10-08T02:20:47;8.50;;;3.20;;
4839;SDS011;2434;48.486;7.964;2023-10-08T02:23:15;6.97;;;3.30;;
4839;SDS011;2434;48.486;7.964;2023-10-08T02:25:44;5.23;;;3.30;;
4839;SDS011;2434;48.486;7.964;2023-10-08T02:28:16;8.03;;;3.20;;
4839;SDS011;2434;48.486;7.964;2023-10-08T02:30:47;8.33;;;3.33;;
4839;SDS011;2434;48.486;7.964;2023-10-08T02:33:15;7.23;;;3.77;;
4839;SDS011;2434;48.486;7.964;2023-10-08T02:35:44;5.87;;;3.43;;
4839;SDS011;2434;48.486;7.964;2023-10-08T02:38:14;6.87;;;4.00;;
4839;SDS011;2434;48.486;7.964;2023-10-08T02:40:44;6.70;;;3.47;;
4839;SDS011;2434;48.486;7.964;2023-10-08T02:43:16;5.87;;;3.33;;
4839;SDS011;2434;48.486;7.964;2023-10-08T02:45:45;7.40;;;3.57;;
4839;SDS011;2434;48.486;7.964;2023-10-08T02:48:16;7.60;;;3.27;;
4839;SDS011;2434;48.486;7.964;2023-10-08T02:50:47;7.37;;;4.20;;
4839;SDS011;2434;48.486;7.964;2023-10-08T02:53:15;6.20;;;3.00;;
4839;SDS011;2434;48.486;7.964;2023-10-08T02:55:47;7.90;;;3.67;;
4839;SDS011;2434;48.486;7.964;2023-10-08T02:58:18;12.13;;;4.60;;
4839;SDS011;2434;48.486;7.964;2023-10-08T03:00:47;6.20;;;2.83;;
4839;SDS011;2434;48.486;7.964;2023-10-08T03:03:16;6.23;;;3.20;;
4839;SDS011;2434;48.486;7.964;2023-10-08T03:05:47;7.40;;;3.97;;
4839;SDS011;2434;48.486;7.964;2023-10-08T03:08:17;7.03;;;3.63;;
4839;SDS011;2434;48.486;7.964;2023-10-08T03:10:49;5.07;;;3.20;;
4839;SDS011;2434;48.486;7.964;2023-10-08T03:13:24;10.97;;;4.23;;
4839;SDS011;2434;48.486;7.964;2023-10-08T03:15:53;9.73;;;3.57;;
4839;SDS011;2434;48.486;7.964;2023-10-08T03:18:36;6.37;;;3.60;;
4839;SDS011;2434;48.486;7.964;2023-10-08T03:21:09;10.17;;;4.90;;
4839;SDS011;2434;48.486;7.964;2023-10-08T03:23:50;7.10;;;4.10;;
4839;SDS011;2434;48.486;7.964;2023-10-08T03:26:23;8.70;;;4.20;;
4839;SDS011;2434;48.486;7.964;2023-10-08T03:29:02;9.27;;;4.60;;
4839;SDS011;2434;48.486;7.964;2023-10-08T03:31:34;10.50;;;4.40;;
4839;SDS011;2434;48.486;7.964;2023-10-08T03:34:18;15.10;;;4.33;;
4839;SDS011;2434;48.486;7.964;2023-10-08T03:36:54;9.43;;;4.30;;
4839;SDS011;2434;48.486;7.964;2023-10-08T03:39:32;7.03;;;3.90;;
4839;SDS011;2434;48.486;7.964;2023-10-08T03:42:21;8.10;;;3.90;;
4839;SDS011;2434;48.486;7.964;2023-10-08T03:44:51;7.73;;;3.93;;
4839;SDS011;2434;48.486;7.964;2023-10-08T03:47:22;6.13;;;3.40;;
4839;SDS011;2434;48.486;7.964;2023-10-08T03:49:53;10.40;;;4.17;;
4839;SDS011;2434;48.486;7.964;2023-10-08T03:52:21;6.63;;;3.40;;
4839;SDS011;2434;48.486;7.964;2023-10-08T03:54:52;6.50;;;3.47;;
4839;SDS011;2434;48.486;7.964;2023-10-08T03:57:31;7.87;;;3.60;;
4839;SDS011;2434;48.486;7.964;2023-10-08T04:00:11;8.27;;;4.30;;
4839;SDS011;2434;48.486;7.964;2023-10-08T04:02:44;8.33;;;4.13;;
4839;SDS011;2434;48.486;7.964;2023-10-08T04:05:21;9.50;;;3.20;;
4839;SDS011;2434;48.486;7.964;2023-10-08T04:07:54;6.97;;;3.87;;
4839;SDS011;2434;48.486;7.964;2023-10-08T04:10:46;9.00;;;3.90;;
4839;SDS011;2434;48.486;7.964;2023-10-08T04:13:30;7.87;;;4.03;;
4839;SDS011;2434;48.486;7.964;2023-10-08T04:16:00;8.30;;;4.17;;
4839;SDS011;2434;48.486;7.964;2023-10-08T04:18:31;6.17;;;3.40;;
4839;SDS011;2434;48.486;7.964;2023-10-08T04:21:07;8.07;;;4.40;;
4839;SDS011;2434;48.486;7.964;2023-10-08T04:23:39;8.97;;;4.03;;
4839;SDS011;2434;48.486;7.964;2023-10-08T04:26:08;5.83;;;3.77;;
4839;SDS011;2434;48.486;7.964;2023-10-08T04:28:37;4.47;;;2.97;;
4839;SDS011;2434;48.486;7.964;2023-10-08T04:31:09;6.87;;;3.23;;
4839;SDS011;2434;48.486;7.964;2023-10-08T04:33:43;8.03;;;3.70;;
4839;SDS011;2434;48.486;7.964;2023-10-08T04:36:13;5.77;;;3.63;;
4839;SDS011;2434;48.486;7.964;2023-10-08T04:38:44;7.77;;;4.00;;
4839;SDS011;2434;48.486;7.964;2023-10-08T04:41:14;6.53;;;3.80;;
4839;SDS011;2434;48.486;7.964;2023-10-08T04:43:46;6.73;;;3.30;;
4839;SDS011;2434;48.486;7.964;2023-10-08T04:46:17;6.47;;;3.80;;
4839;SDS011;2434;48.486;7.964;2023-10-08T04:49:00;6.90;;;3.87;;
4839;SDS011;2434;48.486;7.964;2023-10-08T04:51:34;6.47;;;3.50;;
4839;SDS011;2434;48.486;7.964;2023-10-08T04:54:10;5.90;;;3.30;;
4839;SDS011;2434;48.486;7.964;2023-10-08T04:56:43;7.30;;;3.60;;
4839;SDS011;2434;48.486;7.964;2023-10-08T04:59:11;7.53;;;4.10;;
4839;SDS011;2434;48.486;7.964;2023-10-08T05:01:41;6.10;;;3.53;;
4839;SDS011;2434;48.486;7.964;2023-10-08T05:04:15;10.23;;;4.70;;
4839;SDS011;2434;48.486;7.964;2023-10-08T05:06:59;8.17;;;4.30;;
4839;SDS011;2434;48.486;7.964;2023-10-08T05:09:53;8.80;;;3.57;;
4839;SDS011;2434;48.486;7.964;2023-10-08T05:12:38;7.67;;;4.23;;
4839;SDS011;2434;48.486;7.964;2023-10-08T05:15:13;7.87;;;3.67;;
4839;SDS011;2434;48.486;7.964;2023-10-08T05:18:01;6.70;;;3.60;;
4839;SDS011;2434;48.486;7.964;2023-10-08T05:20:50;6.90;;;3.20;;
4839;SDS011;2434;48.486;7.964;2023-10-08T05:23:30;6.80;;;3.60;;
4839;SDS011;2434;48.486;7.964;2023-10-08T05:26:20;10.13;;;4.30;;
4839;SDS011;2434;48.486;7.964;2023-10-08T05:28:58;8.70;;;3.40;;
4839;SDS011;2434;48.486;7.964;2023-10-08T05:31:30;7.10;;;4.07;;
4839;SDS011;2434;48.486;7.964;2023-10-08T05:34:15;6.73;;;3.80;;
4839;SDS011;2434;48.486;7.964;2023-10-08T05:36:44;9.13;;;3.73;;
4839;SDS011;2434;48.486;7.964;2023-10-08T05:39:41;7.87;;;3.90;;
4839;SDS011;2434;48.486;7.964;2023-10-08T05:42:13;8.00;;;3.87;;
4839;SDS011;2434;48.486;7.964;2023-10-08T05:44:44;6.77;;;3.57;;
4839;SDS011;2434;48.486;7.964;2023-10-08T05:47:13;6.93;;;3.50;;
4839;SDS011;2434;48.486;7.964;2023-10-08T05:50:06;8.60;;;4.20;;
4839;SDS011;2434;48.486;7.964;2023-10-08T05:52:53;7.90;;;3.57;;
4839;SDS011;2434;48.486;7.964;2023-10-08T05:55:41;7.20;;;4.23;;
4839;SDS011;2434;48.486;7.964;2023-10-08T05:58:14;8.20;;;4.60;;
4839;SDS011;2434;48.486;7.964;2023-10-08T06:00:51;12.40;;;4.90;;
4839;SDS011;2434;48.486;7.964;2023-10-08T06:03:52;8.90;;;4.90;;
4839;SDS011;2434;48.486;7.964;2023-10-08T06:06:39;8.97;;;4.93;;
4839;SDS011;2434;48.486;7.964;2023-10-08T06:09:14;9.70;;;5.63;;
4839;SDS011;2434;48.486;7.964;2023-10-08T06:12:01;9.60;;;4.90;;
4839;SDS011;2434;48.486;7.964;2023-10-08T06:14:37;6.50;;;3.80;;
4839;SDS011;2434;48.486;7.964;2023-10-08T06:17:34;7.37;;;4.47;;
4839;SDS011;2434;48.486;7.964;2023-10-08T06:20:25;9.03;;;4.47;;
4839;SDS011;2434;48.486;7.964;2023-10-08T06:22:55;9.37;;;4.50;;
4839;SDS011;2434;48.486;7.964;2023-10-08T06:25:32;6.70;;;4.47;;
4839;SDS011;2434;48.486;7.964;2023-10-08T06:28:12;12.03;;;4.50;;
4839;SDS011;2434;48.486;7.964;2023-10-08T06:30:45;7.53;;;4.67;;
4839;SDS011;2434;48.486;7.964;2023-10-08T06:33:14;11.80;;;4.90;;
4839;SDS011;2434;48.486;7.964;2023-10-08T06:35:43;8.90;;;4.70;;
4839;SDS011;2434;48.486;7.964;2023-10-08T06:38:15;10.90;;;5.37;;
4839;SDS011;2434;48.486;7.964;2023-10-08T06:40:45;8.90;;;5.60;;
4839;SDS011;2434;48.486;7.964;2023-10-08T06:43:15;10.17;;;6.50;;
4839;SDS011;2434;48.486;7.964;2023-10-08T06:45:48;12.50;;;7.20;;
4839;SDS011;2434;48.486;7.964;2023-10-08T06:48:21;12.23;;;6.83;;
4839;SDS011;2434;48.486;7.964;2023-10-08T06:50:51;14.40;;;6.43;;
4839;SDS011;2434;48.486;7.964;2023-10-08T06:53:25;13.40;;;6.90;;
4839;SDS011;2434;48.486;7.964;2023-10-08T06:55:56;14.70;;;6.43;;
4839;SDS011;2434;48.486;7.964;2023-10-08T06:58:30;11.60;;;6.20;;
4839;SDS011;2434;48.486;7.964;2023-10-08T07:01:00;9.97;;;6.13;;
4839;SDS011;2434;48.486;7.964;2023-10-08T07:03:32;9.53;;;5.13;;
4839;SDS011;2434;48.486;7.964;2023-10-08T07:06:00;9.87;;;6.17;;
4839;SDS011;2434;48.486;7.964;2023-10-08T07:08:43;13.20;;;5.90;;
4839;SDS011;2434;48.486;7.964;2023-10-08T07:11:13;8.80;;;5.90;;
4839;SDS011;2434;48.486;7.964;2023-10-08T07:13:44;12.93;;;5.50;;
4839;SDS011;2434;48.486;7.964;2023-10-08T07:16:13;11.53;;;5.80;;
4839;SDS011;2434;48.486;7.964;2023-10-08T07:18:44;8.63;;;4.40;;
4839;SDS011;2434;48.486;7.964;2023-10-08T07:21:17;8.90;;;5.27;;
4839;SDS011;2434;48.486;7.964;2023-10-08T07:23:57;10.80;;;4.07;;
4839;SDS011;2434;48.486;7.964;2023-10-08T07:26:26;10.90;;;5.20;;
4839;SDS011;2434;48.486;7.964;2023-10-08T07:29:03;13.93;;;5.83;;
4839;SDS011;2434;48.486;7.964;2023-10-08T07:31:35;10.40;;;4.83;;
4839;SDS011;2434;48.486;7.964;2023-10-08T07:34:08;15.60;;;5.30;;
4839;SDS011;2434;48.486;7.964;2023-10-08T07:36:46;6.60;;;4.23;;
4839;SDS011;2434;48.486;7.964;2023-10-08T07:39:17;8.00;;;4.47;;
4839;SDS011;2434;48.486;7.964;2023-10-08T07:42:01;10.57;;;4.77;;
4839;SDS011;2434;48.486;7.964;2023-10-08T07:44:34;8.67;;;5.20;;
4839;SDS011;2434;48.486;7.964;2023-10-08T07:47:05;9.57;;;4.00;;
4839;SDS011;2434;48.486;7.964;2023-10-08T07:49:37;8.50;;;3.83;;
4839;SDS011;2434;48.486;7.964;2023-10-08T07:52:06;9.37;;;4.50;;
4839;SDS011;2434;48.486;7.964;2023-10-08T07:54:36;7.70;;;4.20;;
4839;SDS011;2434;48.486;7.964;2023-10-08T07:57:04;8.07;;;4.60;;
4839;SDS011;2434;48.486;7.964;2023-10-08T07:59:39;8.13;;;3.97;;
4839;SDS011;2434;48.486;7.964;2023-10-08T08:02:13;9.07;;;4.73;;
4839;SDS011;2434;48.486;7.964;2023-10-08T08:04:45;8.00;;;4.37;;
4839;SDS011;2434;48.486;7.964;2023-10-08T08:07:19;7.83;;;4.00;;
4839;SDS011;2434;48.486;7.964;2023-10-08T08:09:50;10.00;;;4.67;;
4839;SDS011;2434;48.486;7.964;2023-10-08T08:12:25;6.73;;;4.33;;
4839;SDS011;2434;48.486;7.964;2023-10-08T08:14:59;8.83;;;4.03;;
4839;SDS011;2434;48.486;7.964;2023-10-08T08:17:30;10.37;;;4.23;;
4839;SDS011;2434;48.486;7.964;2023-10-08T08:20:00;10.63;;;4.00;;
4839;SDS011;2434;48.486;7.964;2023-10-08T08:22:44;5.93;;;3.70;;
4839;SDS011;2434;48.486;7.964;2023-10-08T08:25:18;10.23;;;5.10;;
4839;SDS011;2434;48.486;7.964;2023-10-08T08:28:01;8.70;;;3.70;;
4839;SDS011;2434;48.486;7.964;2023-10-08T08:30:32;11.57;;;4.77;;
4839;SDS011;2434;48.486;7.964;2023-10-08T08:33:03;8.27;;;3.90;;
4839;SDS011;2434;48.486;7.964;2023-10-08T08:35:37;9.50;;;4.13;;
4839;SDS011;2434;48.486;7.964;2023-10-08T08:38:06;8.70;;;4.57;;
4839;SDS011;2434;48.486;7.964;2023-10-08T08:40:37;11.87;;;4.53;;
4839;SDS011;2434;48.486;7.964;2023-10-08T08:43:06;6.63;;;3.90;;
4839;SDS011;2434;48.486;7.964;2023-10-08T08:45:38;12.97;;;4.93;;
4839;SDS011;2434;48.486;7.964;2023-10-08T08:48:07;11.03;;;4.80;;
4839;SDS011;2434;48.486;7.964;2023-10-08T08:50:35;9.30;;;4.17;;
4839;SDS011;2434;48.486;7.964;2023-10-08T08:53:05;10.67;;;5.03;;
4839;SDS011;2434;48.486;7.964;2023-10-08T08:55:33;8.87;;;3.80;;
4839;SDS011;2434;48.486;7.964;2023-10-08T08:58:04;11.70;;;4.07;;
4839;SDS011;2434;48.486;7.964;2023-10-08T09:00:37;7.20;;;3.57;;
4839;SDS011;2434;48.486;7.964;2023-10-08T09:03:07;10.60;;;4.57;;
4839;SDS011;2434;48.486;7.964;2023-10-08T09:05:39;8.03;;;4.00;;
4839;SDS011;2434;48.486;7.964;2023-10-08T09:08:09;11.43;;;4.33;;
4839;SDS011;2434;48.486;7.964;2023-10-08T09:10:37;9.40;;;4.27;;
4839;SDS011;2434;48.486;7.964;2023-10-08T09:13:20;17.03;;;4.60;;
4839;SDS011;2434;48.486;7.964;2023-10-08T09:15:49;8.70;;;4.00;;
4839;SDS011;2434;48.486;7.964;2023-10-08T09:18:22;8.37;;;3.93;;
4839;SDS011;2434;48.486;7.964;2023-10-08T09:20:54;10.93;;;4.03;;
4839;SDS011;2434;48.486;7.964;2023-10-08T09:23:22;14.83;;;4.27;;
4839;SDS011;2434;48.486;7.964;2023-10-08T09:25:52;9.20;;;4.20;;
4839;SDS011;2434;48.486;7.964;2023-10-08T09:28:30;9.50;;;3.83;;
4839;SDS011;2434;48.486;7.964;2023-10-08T09:31:01;8.83;;;4.67;;
4839;SDS011;2434;48.486;7.964;2023-10-08T09:33:31;9.93;;;4.77;;
4839;SDS011;2434;48.486;7.964;2023-10-08T09:36:00;7.73;;;3.90;;
4839;SDS011;2434;48.486;7.964;2023-10-08T09:38:32;9.37;;;4.50;;
4839;SDS011;2434;48.486;7.964;2023-10-08T09:41:01;9.17;;;3.77;;
4839;SDS011;2434;48.486;7.964;2023-10-08T09:43:31;10.47;;;4.63;;
4839;SDS011;2434;48.486;7.964;2023-10-08T09:46:03;9.07;;;3.87;;
4839;SDS011;2434;48.486;7.964;2023-10-08T09:48:41;8.13;;;4.57;;
4839;SDS011;2434;48.486;7.964;2023-10-08T09:51:12;6.47;;;3.33;;
4839;SDS011;2434;48.486;7.964;2023-10-08T09:53:43;9.07;;;3.63;;
4839;SDS011;2434;48.486;7.964;2023-10-08T09:56:20;10.07;;;4.50;;
4839;SDS011;2434;48.486;7.964;2023-10-08T09:58:52;12.73;;;5.43;;
4839;SDS011;2434;48.486;7.964;2023-10-08T10:01:20;9.43;;;4.83;;
4839;SDS011;2434;48.486;7.964;2023-10-08T10:03:50;10.97;;;4.30;;
4839;SDS011;2434;48.486;7.964;2023-10-08T10:06:18;15.77;;;5.73;;
4839;SDS011;2434;48.486;7.964;2023-10-08T10:08:47;9.00;;;3.40;;
4839;SDS011;2434;48.486;7.964;2023-10-08T10:11:16;9.33;;;3.80;;
4839;SDS011;2434;48.486;7.964;2023-10-08T10:13:45;12.00;;;3.70;;
4839;SDS011;2434;48.486;7.964;2023-10-08T10:16:28;7.50;;;4.00;;
4839;SDS011;2434;48.486;7.964;2023-10-08T10:18:56;14.23;;;3.93;;
4839;SDS011;2434;48.486;7.964;2023-10-08T10:21:28;10.23;;;4.10;;
4839;SDS011;2434;48.486;7.964;2023-10-08T10:23:59;11.13;;;3.80;;
4839;SDS011;2434;48.486;7.964;2023-10-08T10:26:33;9.43;;;4.10;;
4839;SDS011;2434;48.486;7.964;2023-10-08T10:29:18;9.60;;;3.97;;
4839;SDS011;2434;48.486;7.964;2023-10-08T10:31:54;9.77;;;3.67;;
4839;SDS011;2434;48.486;7.964;2023-10-08T10:34:24;8.20;;;3.70;;
4839;SDS011;2434;48.486;7.964;2023-10-08T10:36:55;7.03;;;3.67;;
4839;SDS011;2434;48.486;7.964;2023-10-08T10:39:25;7.47;;;3.50;;
4839;SDS011;2434;48.486;7.964;2023-10-08T10:41:56;8.87;;;4.40;;
4839;SDS011;2434;48.486;7.964;2023-10-08T10:44:28;9.27;;;3.83;;
4839;SDS011;2434;48.486;7.964;2023-10-08T10:46:59;17.10;;;3.33;;
4839;SDS011;2434;48.486;7.964;2023-10-08T10:49:53;9.47;;;4.33;;
4839;SDS011;2434;48.486;7.964;2023-10-08T10:52:42;8.80;;;4.00;;
4839;SDS011;2434;48.486;7.964;2023-10-08T10:55:19;10.60;;;4.20;;
4839;SDS011;2434;48.486;7.964;2023-10-08T10:57:58;9.47;;;4.20;;
4839;SDS011;2434;48.486;7.964;2023-10-08T11:00:41;8.80;;;3.77;;
4839;SDS011;2434;48.486;7.964;2023-10-08T11:03:25;6.27;;;3.63;;
4839;SDS011;2434;48.486;7.964;2023-10-08T11:05:56;10.77;;;3.60;;
4839;SDS011;2434;48.486;7.964;2023-10-08T11:08:32;10.17;;;3.97;;
4839;SDS011;2434;48.486;7.964;2023-10-08T11:11:13;9.33;;;4.30;;
4839;SDS011;2434;48.486;7.964;2023-10-08T11:13:44;7.27;;;4.10;;
4839;SDS011;2434;48.486;7.964;2023-10-08T11:16:18;8.20;;;3.33;;
4839;SDS011;2434;48.486;7.964;2023-10-08T11:18:53;8.17;;;3.80;;
4839;SDS011;2434;48.486;7.964;2023-10-08T11:21:24;7.93;;;3.43;;
4839;SDS011;2434;48.486;7.964;2023-10-08T11:23:57;8.93;;;3.93;;
4839;SDS011;2434;48.486;7.964;2023-10-08T11:26:34;16.00;;;4.37;;
4839;SDS011;2434;48.486;7.964;2023-10-08T11:29:06;7.20;;;3.87;;
4839;SDS011;2434;48.486;7.964;2023-10-08T11:31:41;6.97;;;3.50;;
4839;SDS011;2434;48.486;7.964;2023-10-08T11:34:11;9.70;;;3.90;;
4839;SDS011;2434;48.486;7.964;2023-10-08T11:36:41;9.50;;;3.73;;
4839;SDS011;2434;48.486;7.964;2023-10-08T11:39:20;8.60;;;4.00;;
4839;SDS011;2434;48.486;7.964;2023-10-08T11:41:56;6.93;;;3.13;;
4839;SDS011;2434;48.486;7.964;2023-10-08T11:44:33;8.10;;;3.67;;
4839;SDS011;2434;48.486;7.964;2023-10-08T11:47:04;8.83;;;3.77;;
4839;SDS011;2434;48.486;7.964;2023-10-08T11:49:40;9.87;;;3.63;;
4839;SDS011;2434;48.486;7.964;2023-10-08T11:52:14;8.97;;;4.00;;
4839;SDS011;2434;48.486;7.964;2023-10-08T11:54:43;8.17;;;4.30;;
4839;SDS011;2434;48.486;7.964;2023-10-08T11:57:15;9.47;;;4.00;;
4839;SDS011;2434;48.486;7.964;2023-10-08T11:59:49;6.03;;;3.50;;
4839;SDS011;2434;48.486;7.964;2023-10-08T12:02:21;10.50;;;4.60;;
4839;SDS011;2434;48.486;7.964;2023-10-08T12:04:51;7.23;;;3.70;;
4839;SDS011;2434;48.486;7.964;2023-10-08T12:07:24;7.33;;;4.03;;
4839;SDS011;2434;48.486;7.964;2023-10-08T12:09:54;8.63;;;3.50;;
4839;SDS011;2434;48.486;7.964;2023-10-08T12:12:23;6.93;;;3.47;;
4839;SDS011;2434;48.486;7.964;2023-10-08T12:14:51;10.47;;;3.67;;
4839;SDS011;2434;48.486;7.964;2023-10-08T12:17:21;7.10;;;3.80;;
4839;SDS011;2434;48.486;7.964;2023-10-08T12:20:06;7.40;;;3.80;;
4839;SDS011;2434;48.486;7.964;2023-10-08T12:22:50;7.00;;;3.80;;
4839;SDS011;2434;48.486;7.964;2023-10-08T12:25:18;6.60;;;3.37;;
4839;SDS011;2434;48.486;7.964;2023-10-08T12:27:47;11.57;;;4.60;;
4839;SDS011;2434;48.486;7.964;2023-10-08T12:30:15;7.43;;;3.77;;
4839;SDS011;2434;48.486;7.964;2023-10-08T12:32:44;8.43;;;3.13;;
4839;SDS011;2434;48.486;7.964;2023-10-08T12:35:14;10.73;;;4.20;;
4839;SDS011;2434;48.486;7.964;2023-10-08T12:37:43;10.07;;;3.60;;
4839;SDS011;2434;48.486;7.964;2023-10-08T12:40:11;7.23;;;3.30;;
4839;SDS011;2434;48.486;7.964;2023-10-08T12:42:50;6.70;;;3.47;;
4839;SDS011;2434;48.486;7.964;2023-10-08T12:45:18;8.30;;;4.10;;
4839;SDS011;2434;48.486;7.964;2023-10-08T12:47:48;7.80;;;4.10;;
4839;SDS011;2434;48.486;7.964;2023-10-08T12:50:19;6.40;;;3.47;;
4839;SDS011;2434;48.486;7.964;2023-10-08T12:52:56;7.60;;;4.33;;
4839;SDS011;2434;48.486;7.964;2023-10-08T12:55:30;8.10;;;3.57;;
4839;SDS011;2434;48.486;7.964;2023-10-08T12:58:06;8.57;;;3.80;;
4839;SDS011;2434;48.486;7.964;2023-10-08T13:00:37;8.40;;;4.50;;
4839;SDS011;2434;48.486;7.964;2023-10-08T13:03:08;7.60;;;4.07;;
4839;SDS011;2434;48.486;7.964;2023-10-08T13:05:43;13.30;;;5.27;;
4839;SDS011;2434;48.486;7.964;2023-10-08T13:08:12;8.30;;;4.50;;
4839;SDS011;2434;48.486;7.964;2023-10-08T13:10:40;11.33;;;4.53;;
4839;SDS011;2434;48.486;7.964;2023-10-08T13:13:11;10.13;;;4.90;;
4839;SDS011;2434;48.486;7.964;2023-10-08T13:15:40;8.93;;;4.10;;
4839;SDS011;2434;48.486;7.964;2023-10-08T13:18:09;24.00;;;3.90;;
4839;SDS011;2434;48.486;7.964;2023-10-08T13:20:38;10.87;;;3.77;;
4839;SDS011;2434;48.486;7.964;2023-10-08T13:23:09;17.53;;;4.33;;
4839;SDS011;2434;48.486;7.964;2023-10-08T13:25:38;14.50;;;3.93;;
4839;SDS011;2434;48.486;7.964;2023-10-08T13:28:06;11.47;;;4.33;;
4839;SDS011;2434;48.486;7.964;2023-10-08T13:30:38;7.00;;;4.07;;
4839;SDS011;2434;48.486;7.964;2023-10-08T13:33:06;8.40;;;3.70;;
4839;SDS011;2434;48.486;7.964;2023-10-08T13:35:36;11.80;;;4.40;;
4839;SDS011;2434;48.486;7.964;2023-10-08T13:38:05;9.53;;;3.90;;
4839;SDS011;2434;48.486;7.964;2023-10-08T13:40:37;7.80;;;4.17;;
4839;SDS011;2434;48.486;7.964;2023-10-08T13:43:10;10.50;;;4.00;;
4839;SDS011;2434;48.486;7.964;2023-10-08T13:45:39;14.53;;;4.40;;
4839;SDS011;2434;48.486;7.964;2023-10-08T13:48:08;16.50;;;4.40;;
4839;SDS011;2434;48.486;7.964;2023-10-08T13:50:41;13.83;;;4.47;;
4839;SDS011;2434;48.486;7.964;2023-10-08T13:53:10;13.53;;;5.63;;
4839;SDS011;2434;48.486;7.964;2023-10-08T13:55:41;16.33;;;4.50;;
4839;SDS011;2434;48.486;7.964;2023-10-08T13:58:12;13.90;;;4.77;;
4839;SDS011;2434;48.486;7.964;2023-10-08T14:00:40;10.20;;;5.03;;
4839;SDS011;2434;48.486;7.964;2023-10-08T14:03:08;9.60;;;4.10;;
4839;SDS011;2434;48.486;7.964;2023-10-08T14:05:38;10.80;;;3.70;;
4839;SDS011;2434;48.486;7.964;2023-10-08T14:08:06;14.93;;;5.70;;
4839;SDS011;2434;48.486;7.964;2023-10-08T14:10:43;14.07;;;5.40;;
4839;SDS011;2434;48.486;7.964;2023-10-08T14:13:15;7.60;;;4.70;;
4839;SDS011;2434;48.486;7.964;2023-10-08T14:15:46;14.27;;;4.30;;
4839;SDS011;2434;48.486;7.964;2023-10-08T14:18:22;19.00;;;5.13;;
4839;SDS011;2434;48.486;7.964;2023-10-08T14:20:55;10.13;;;4.20;;
4839;SDS011;2434;48.486;7.964;2023-10-08T14:23:23;20.13;;;4.70;;
4839;SDS011;2434;48.486;7.964;2023-10-08T14:25:54;11.97;;;4.13;;
4839;SDS011;2434;48.486;7.964;2023-10-08T14:28:30;13.20;;;4.47;;
4839;SDS011;2434;48.486;7.964;2023-10-08T14:31:09;13.03;;;4.10;;
4839;SDS011;2434;48.486;7.964;2023-10-08T14:33:42;7.47;;;3.70;;
4839;SDS011;2434;48.486;7.964;2023-10-08T14:36:22;7.97;;;4.27;;
4839;SDS011;2434;48.486;7.964;2023-10-08T14:39:20;13.40;;;4.07;;
4839;SDS011;2434;48.486;7.964;2023-10-08T14:42:12;9.90;;;4.40;;
4839;SDS011;2434;48.486;7.964;2023-10-08T14:45:03;7.23;;;3.70;;
4839;SDS011;2434;48.486;7.964;2023-10-08T14:47:37;10.33;;;4.10;;
4839;SDS011;2434;48.486;7.964;2023-10-08T14:50:06;11.60;;;4.67;;
4839;SDS011;2434;48.486;7.964;2023-10-08T14:52:42;6.30;;;3.60;;
4839;SDS011;2434;48.486;7.964;2023-10-08T14:55:11;12.67;;;4.20;;
4839;SDS011;2434;48.486;7.964;2023-10-08T14:57:41;9.17;;;4.30;;
4839;SDS011;2434;48.486;7.964;2023-10-08T15:00:11;8.73;;;3.67;;
4839;SDS011;2434;48.486;7.964;2023-10-08T15:02:40;11.00;;;4.13;;
4839;SDS011;2434;48.486;7.964;2023-10-08T15:05:09;8.07;;;3.97;;
4839;SDS011;2434;48.486;7.964;2023-10-08T15:07:37;7.33;;;3.70;;
4839;SDS011;2434;48.486;7.964;2023-10-08T15:10:06;11.33;;;4.00;;
4839;SDS011;2434;48.486;7.964;2023-10-08T15:12:35;8.77;;;4.30;;
4839;SDS011;2434;48.486;7.964;2023-10-08T15:15:06;10.73;;;4.33;;
4839;SDS011;2434;48.486;7.964;2023-10-08T15:17:40;7.23;;;3.80;;
4839;SDS011;2434;48.486;7.964;2023-10-08T15:20:10;10.60;;;4.70;;
4839;SDS011;2434;48.486;7.964;2023-10-08T15:22:41;12.70;;;4.63;;
4839;SDS011;2434;48.486;7.964;2023-10-08T15:25:10;10.03;;;4.30;;
4839;SDS011;2434;48.486;7.964;2023-10-08T15:27:38;8.47;;;4.07;;
4839;SDS011;2434;48.486;7.964;2023-10-08T15:30:09;8.00;;;4.20;;
4839;SDS011;2434;48.486;7.964;2023-10-08T15:32:39;9.80;;;4.07;;
4839;SDS011;2434;48.486;7.964;2023-10-08T15:35:10;12.90;;;4.30;;
4839;SDS011;2434;48.486;7.964;2023-10-08T15:37:41;6.57;;;3.60;;
4839;SDS011;2434;48.486;7.964;2023-10-08T15:40:09;9.57;;;4.20;;
4839;SDS011;2434;48.486;7.964;2023-10-08T15:42:46;8.83;;;3.97;;
4839;SDS011;2434;48.486;7.964;2023-10-08T15:45:17;8.43;;;4.13;;
4839;SDS011;2434;48.486;7.964;2023-10-08T15:47:47;10.83;;;4.80;;